sensor_id;sensor_type;location;lat;lon;timestamp;P1;durP1;ratioP1;P2;durP2;ratioP2
19863;SDS011;10094;48.820;9.226;2023-01-01T00:01:46;227.00;;;168.82;;
19863;SDS011;10094;48.820;9.226;2023-01-01T00:08:28;223.40;;;163.00;;
19863;SDS011;10094;48.820;9.226;2023-01-01T00:15:11;207.40;;;150.27;;
19863;SDS011;10094;48.820;9.226;2023-01-01T00:21:53;214.13;;;154.23;;
19863;SDS011;10094;48.820;9.226;2023-01-01T00:28:35;242.48;;;177.45;;
19863;SDS011;10094;48.820;9.226;2023-01-01T00:35:18;199.20;;;140.73;;
19863;SDS011;10094;48.820;9.226;2023-01-01T00:42:00;194.63;;;138.93;;
19863;SDS011;10094;48.820;9.226;2023-01-01T00:48:43;203.02;;;143.15;;
19863;SDS011;10094;48.820;9.226;2023-01-01T00:55:26;198.48;;;141.82;;
19863;SDS011;10094;48.820;9.226;2023-01-01T01:02:08;196.00;;;140.93;;
19863;SDS011;10094;48.820;9.226;2023-01-01T01:08:51;168.57;;;124.90;;
19863;SDS011;10094;48.820;9.226;2023-01-01T01:15:33;152.95;;;109.72;;
19863;SDS011;10094;48.820;9.226;2023-01-01T01:22:16;146.18;;;107.28;;
19863;SDS011;10094;48.820;9.226;2023-01-01T01:29:03;152.45;;;109.95;;
19863;SDS011;10094;48.820;9.226;2023-01-01T01:35:49;139.57;;;101.75;;
19863;SDS011;10094;48.820;9.226;2023-01-01T01:42:35;166.98;;;122.45;;
19863;SDS011;10094;48.820;9.226;2023-01-01T01:49:24;132.15;;;101.00;;
19863;SDS011;10094;48.820;9.226;2023-01-01T01:56:12;136.38;;;95.72;;
19863;SDS011;10094;48.820;9.226;2023-01-01T02:02:58;107.30;;;79.18;;
19863;SDS011;10094;48.820;9.226;2023-01-01T02:09:46;101.85;;;78.30;;
19863;SDS011;10094;48.820;9.226;2023-01-01T02:23:24;126.88;;;89.25;;
19863;SDS011;10094;48.820;9.226;2023-01-01T02:30:09;127.18;;;90.68;;
19863;SDS011;10094;48.820;9.226;2023-01-01T02:36:53;139.70;;;102.15;;
19863;SDS011;10094;48.820;9.226;2023-01-01T02:43:39;123.15;;;89.28;;
19863;SDS011;10094;48.820;9.226;2023-01-01T02:50:26;127.95;;;88.95;;
19863;SDS011;10094;48.820;9.226;2023-01-01T03:17:42;122.20;;;83.47;;
19863;SDS011;10094;48.820;9.226;2023-01-01T03:24:34;122.50;;;84.80;;
19863;SDS011;10094;48.820;9.226;2023-01-01T03:31:31;123.85;;;86.05;;
19863;SDS011;10094;48.820;9.226;2023-01-01T03:38:34;119.07;;;83.07;;
19863;SDS011;10094;48.820;9.226;2023-01-01T03:45:29;85.57;;;61.00;;
19863;SDS011;10094;48.820;9.226;2023-01-01T03:59:19;129.55;;;87.63;;
19863;SDS011;10094;48.820;9.226;2023-01-01T04:06:09;116.63;;;82.57;;
19863;SDS011;10094;48.820;9.226;2023-01-01T04:12:54;119.97;;;87.38;;
19863;SDS011;10094;48.820;9.226;2023-01-01T04:19:38;118.13;;;83.13;;
19863;SDS011;10094;48.820;9.226;2023-01-01T04:26:45;96.53;;;68.30;;
19863;SDS011;10094;48.820;9.226;2023-01-01T04:33:27;116.68;;;80.18;;
19863;SDS011;10094;48.820;9.226;2023-01-01T04:40:10;106.90;;;73.10;;
19863;SDS011;10094;48.820;9.226;2023-01-01T04:46:53;99.32;;;71.53;;
19863;SDS011;10094;48.820;9.226;2023-01-01T04:53:41;114.38;;;78.20;;
19863;SDS011;10094;48.820;9.226;2023-01-01T05:00:25;103.07;;;74.57;;
19863;SDS011;10094;48.820;9.226;2023-01-01T05:07:12;100.07;;;72.65;;
19863;SDS011;10094;48.820;9.226;2023-01-01T05:13:56;88.28;;;60.75;;
19863;SDS011;10094;48.820;9.226;2023-01-01T05:20:39;107.60;;;70.72;;
19863;SDS011;10094;48.820;9.226;2023-01-01T05:27:21;77.22;;;56.10;;
19863;SDS011;10094;48.820;9.226;2023-01-01T05:34:04;94.00;;;63.80;;
19863;SDS011;10094;48.820;9.226;2023-01-01T05:40:45;97.03;;;64.93;;
19863;SDS011;10094;48.820;9.226;2023-01-01T05:47:28;40.58;;;28.45;;
19863;SDS011;10094;48.820;9.226;2023-01-01T05:54:10;77.55;;;54.67;;
19863;SDS011;10094;48.820;9.226;2023-01-01T06:00:52;83.90;;;59.70;;
19863;SDS011;10094;48.820;9.226;2023-01-01T06:07:35;91.97;;;64.82;;
19863;SDS011;10094;48.820;9.226;2023-01-01T06:14:17;75.63;;;50.95;;
19863;SDS011;10094;48.820;9.226;2023-01-01T06:21:12;27.48;;;20.00;;
19863;SDS011;10094;48.820;9.226;2023-01-01T06:27:56;19.63;;;13.43;;
19863;SDS011;10094;48.820;9.226;2023-01-01T06:34:38;26.25;;;18.83;;
19863;SDS011;10094;48.820;9.226;2023-01-01T06:41:21;16.05;;;12.52;;
19863;SDS011;10094;48.820;9.226;2023-01-01T06:48:05;20.88;;;14.57;;
19863;SDS011;10094;48.820;9.226;2023-01-01T06:54:47;14.38;;;10.68;;
19863;SDS011;10094;48.820;9.226;2023-01-01T07:01:31;45.30;;;30.73;;
19863;SDS011;10094;48.820;9.226;2023-01-01T07:08:16;30.17;;;21.30;;
19863;SDS011;10094;48.820;9.226;2023-01-01T07:14:58;20.92;;;13.32;;
19863;SDS011;10094;48.820;9.226;2023-01-01T07:21:44;9.82;;;7.45;;
19863;SDS011;10094;48.820;9.226;2023-01-01T07:28:32;22.98;;;16.52;;
19863;SDS011;10094;48.820;9.226;2023-01-01T07:35:14;21.42;;;15.93;;
19863;SDS011;10094;48.820;9.226;2023-01-01T07:41:57;32.95;;;18.95;;
19863;SDS011;10094;48.820;9.226;2023-01-01T07:48:39;10.07;;;7.82;;
19863;SDS011;10094;48.820;9.226;2023-01-01T07:55:21;12.88;;;9.70;;
19863;SDS011;10094;48.820;9.226;2023-01-01T08:02:03;18.45;;;14.50;;
19863;SDS011;10094;48.820;9.226;2023-01-01T08:08:46;25.15;;;16.65;;
19863;SDS011;10094;48.820;9.226;2023-01-01T08:15:28;36.22;;;26.75;;
19863;SDS011;10094;48.820;9.226;2023-01-01T08:22:11;35.72;;;27.15;;
19863;SDS011;10094;48.820;9.226;2023-01-01T08:28:54;30.98;;;26.05;;
19863;SDS011;10094;48.820;9.226;2023-01-01T08:35:39;33.25;;;25.83;;
19863;SDS011;10094;48.820;9.226;2023-01-01T08:42:23;30.45;;;25.30;;
19863;SDS011;10094;48.820;9.226;2023-01-01T08:49:05;31.80;;;23.67;;
19863;SDS011;10094;48.820;9.226;2023-01-01T08:55:55;27.90;;;23.33;;
19863;SDS011;10094;48.820;9.226;2023-01-01T09:02:42;25.58;;;20.95;;
19863;SDS011;10094;48.820;9.226;2023-01-01T09:09:25;23.50;;;20.55;;
19863;SDS011;10094;48.820;9.226;2023-01-01T09:16:12;21.50;;;19.25;;
19863;SDS011;10094;48.820;9.226;2023-01-01T09:22:55;22.42;;;18.83;;
19863;SDS011;10094;48.820;9.226;2023-01-01T09:29:44;20.42;;;17.98;;
19863;SDS011;10094;48.820;9.226;2023-01-01T09:36:45;22.42;;;17.60;;
19863;SDS011;10094;48.820;9.226;2023-01-01T09:50:14;15.02;;;12.30;;
19863;SDS011;10094;48.820;9.226;2023-01-01T09:57:16;12.70;;;11.00;;
19863;SDS011;10094;48.820;9.226;2023-01-01T10:11:12;15.57;;;12.15;;
19863;SDS011;10094;48.820;9.226;2023-01-01T10:18:03;13.73;;;11.85;;
19863;SDS011;10094;48.820;9.226;2023-01-01T10:25:01;13.88;;;11.23;;
19863;SDS011;10094;48.820;9.226;2023-01-01T10:31:57;12.48;;;10.15;;
19863;SDS011;10094;48.820;9.226;2023-01-01T10:38:47;13.02;;;9.45;;
19863;SDS011;10094;48.820;9.226;2023-01-01T10:45:31;11.05;;;8.45;;
19863;SDS011;10094;48.820;9.226;2023-01-01T10:52:24;14.10;;;9.18;;
19863;SDS011;10094;48.820;9.226;2023-01-01T10:59:30;12.88;;;8.82;;
19863;SDS011;10094;48.820;9.226;2023-01-01T11:13:28;8.68;;;6.90;;
19863;SDS011;10094;48.820;9.226;2023-01-01T11:20:16;8.40;;;6.50;;
19863;SDS011;10094;48.820;9.226;2023-01-01T11:27:22;9.02;;;7.28;;
19863;SDS011;10094;48.820;9.226;2023-01-01T11:34:24;13.45;;;7.13;;
19863;SDS011;10094;48.820;9.226;2023-01-01T11:41:13;10.48;;;5.78;;
19863;SDS011;10094;48.820;9.226;2023-01-01T11:47:59;9.25;;;6.15;;
19863;SDS011;10094;48.820;9.226;2023-01-01T11:54:44;9.20;;;5.75;;
19863;SDS011;10094;48.820;9.226;2023-01-01T12:01:49;8.68;;;4.78;;
19863;SDS011;10094;48.820;9.226;2023-01-01T12:09:03;8.25;;;4.45;;
19863;SDS011;10094;48.820;9.226;2023-01-01T12:16:07;6.25;;;3.90;;
19863;SDS011;10094;48.820;9.226;2023-01-01T12:22:54;7.47;;;4.03;;
19863;SDS011;10094;48.820;9.226;2023-01-01T12:51:14;4.80;;;2.60;;
19863;SDS011;10094;48.820;9.226;2023-01-01T12:58:16;10.55;;;3.38;;
19863;SDS011;10094;48.820;9.226;2023-01-01T13:05:19;7.03;;;2.85;;
19863;SDS011;10094;48.820;9.226;2023-01-01T13:12:20;6.68;;;2.88;;
19863;SDS011;10094;48.820;9.226;2023-01-01T13:19:31;6.60;;;2.90;;
19863;SDS011;10094;48.820;9.226;2023-01-01T13:33:18;8.55;;;2.70;;
19863;SDS011;10094;48.820;9.226;2023-01-01T13:46:57;4.43;;;2.75;;
19863;SDS011;10094;48.820;9.226;2023-01-01T14:08:42;6.22;;;3.30;;
19863;SDS011;10094;48.820;9.226;2023-01-01T14:15:27;6.68;;;3.05;;
19863;SDS011;10094;48.820;9.226;2023-01-01T14:22:13;6.18;;;3.78;;
19863;SDS011;10094;48.820;9.226;2023-01-01T14:28:58;4.97;;;3.45;;
19863;SDS011;10094;48.820;9.226;2023-01-01T14:35:49;4.43;;;3.70;;
19863;SDS011;10094;48.820;9.226;2023-01-01T14:42:33;8.57;;;3.35;;
19863;SDS011;10094;48.820;9.226;2023-01-01T14:49:18;9.30;;;4.60;;
19863;SDS011;10094;48.820;9.226;2023-01-01T14:56:08;10.60;;;5.65;;
19863;SDS011;10094;48.820;9.226;2023-01-01T15:02:51;10.05;;;4.80;;
19863;SDS011;10094;48.820;9.226;2023-01-01T15:09:33;11.35;;;5.50;;
19863;SDS011;10094;48.820;9.226;2023-01-01T15:16:22;11.00;;;6.07;;
19863;SDS011;10094;48.820;9.226;2023-01-01T15:23:05;10.00;;;5.38;;
19863;SDS011;10094;48.820;9.226;2023-01-01T15:29:51;10.20;;;5.72;;
19863;SDS011;10094;48.820;9.226;2023-01-01T15:36:34;11.43;;;6.15;;
19863;SDS011;10094;48.820;9.226;2023-01-01T15:43:17;13.07;;;6.30;;
19863;SDS011;10094;48.820;9.226;2023-01-01T15:50:06;17.08;;;7.78;;
19863;SDS011;10094;48.820;9.226;2023-01-01T15:56:54;17.92;;;8.23;;
19863;SDS011;10094;48.820;9.226;2023-01-01T16:03:37;16.20;;;9.48;;
19863;SDS011;10094;48.820;9.226;2023-01-01T16:10:27;12.50;;;8.02;;
19863;SDS011;10094;48.820;9.226;2023-01-01T16:17:16;14.45;;;7.78;;
19863;SDS011;10094;48.820;9.226;2023-01-01T16:24:00;13.82;;;7.35;;
19863;SDS011;10094;48.820;9.226;2023-01-01T16:30:44;17.17;;;8.18;;
19863;SDS011;10094;48.820;9.226;2023-01-01T16:37:27;12.10;;;7.35;;
19863;SDS011;10094;48.820;9.226;2023-01-01T16:44:10;14.27;;;7.47;;
19863;SDS011;10094;48.820;9.226;2023-01-01T16:50:58;12.45;;;7.68;;
19863;SDS011;10094;48.820;9.226;2023-01-01T16:57:40;13.20;;;8.55;;
19863;SDS011;10094;48.820;9.226;2023-01-01T17:04:24;20.58;;;9.30;;
19863;SDS011;10094;48.820;9.226;2023-01-01T17:11:11;11.55;;;7.72;;
19863;SDS011;10094;48.820;9.226;2023-01-01T17:17:56;18.40;;;9.32;;
19863;SDS011;10094;48.820;9.226;2023-01-01T17:24:39;14.27;;;7.63;;
19863;SDS011;10094;48.820;9.226;2023-01-01T17:31:21;19.08;;;8.90;;
19863;SDS011;10094;48.820;9.226;2023-01-01T17:38:05;14.57;;;10.07;;
19863;SDS011;10094;48.820;9.226;2023-01-01T17:44:47;10.88;;;6.90;;
19863;SDS011;10094;48.820;9.226;2023-01-01T17:51:30;15.80;;;9.38;;
19863;SDS011;10094;48.820;9.226;2023-01-01T17:58:12;16.13;;;10.13;;
19863;SDS011;10094;48.820;9.226;2023-01-01T18:04:55;19.02;;;9.68;;
19863;SDS011;10094;48.820;9.226;2023-01-01T18:11:37;20.70;;;12.57;;
19863;SDS011;10094;48.820;9.226;2023-01-01T18:18:34;24.27;;;14.45;;
19863;SDS011;10094;48.820;9.226;2023-01-01T18:25:18;20.65;;;14.70;;
19863;SDS011;10094;48.820;9.226;2023-01-01T18:32:00;20.67;;;14.10;;
19863;SDS011;10094;48.820;9.226;2023-01-01T18:38:44;21.73;;;14.32;;
19863;SDS011;10094;48.820;9.226;2023-01-01T18:45:34;22.30;;;13.60;;
19863;SDS011;10094;48.820;9.226;2023-01-01T18:52:26;20.35;;;13.80;;
19863;SDS011;10094;48.820;9.226;2023-01-01T18:59:16;32.03;;;20.23;;
19863;SDS011;10094;48.820;9.226;2023-01-01T19:06:01;24.13;;;14.38;;
19863;SDS011;10094;48.820;9.226;2023-01-01T19:13:11;17.33;;;11.48;;
19863;SDS011;10094;48.820;9.226;2023-01-01T19:20:14;20.77;;;15.15;;
19863;SDS011;10094;48.820;9.226;2023-01-01T19:27:14;20.67;;;12.40;;
19863;SDS011;10094;48.820;9.226;2023-01-01T19:33:58;23.80;;;14.43;;
19863;SDS011;10094;48.820;9.226;2023-01-01T19:40:40;22.08;;;14.80;;
19863;SDS011;10094;48.820;9.226;2023-01-01T19:47:23;18.25;;;13.40;;
19863;SDS011;10094;48.820;9.226;2023-01-01T19:54:05;22.75;;;14.25;;
19863;SDS011;10094;48.820;9.226;2023-01-01T20:00:48;27.15;;;16.35;;
19863;SDS011;10094;48.820;9.226;2023-01-01T20:07:31;13.15;;;8.45;;
19863;SDS011;10094;48.820;9.226;2023-01-01T20:14:15;10.15;;;5.63;;
19863;SDS011;10094;48.820;9.226;2023-01-01T20:20:58;6.70;;;4.85;;
19863;SDS011;10094;48.820;9.226;2023-01-01T20:28:06;9.00;;;6.40;;
19863;SDS011;10094;48.820;9.226;2023-01-01T20:35:07;7.93;;;6.53;;
19863;SDS011;10094;48.820;9.226;2023-01-01T20:41:49;11.55;;;8.32;;
19863;SDS011;10094;48.820;9.226;2023-01-01T20:48:32;17.25;;;11.00;;
19863;SDS011;10094;48.820;9.226;2023-01-01T20:55:14;5.78;;;3.60;;
19863;SDS011;10094;48.820;9.226;2023-01-01T21:01:57;8.75;;;4.30;;
19863;SDS011;10094;48.820;9.226;2023-01-01T21:08:41;7.00;;;4.53;;
19863;SDS011;10094;48.820;9.226;2023-01-01T21:15:23;4.53;;;3.15;;
19863;SDS011;10094;48.820;9.226;2023-01-01T21:22:06;8.20;;;3.65;;
19863;SDS011;10094;48.820;9.226;2023-01-01T21:28:53;6.80;;;3.83;;
19863;SDS011;10094;48.820;9.226;2023-01-01T21:35:36;4.32;;;3.58;;
19863;SDS011;10094;48.820;9.226;2023-01-01T21:42:39;7.38;;;3.55;;
19863;SDS011;10094;48.820;9.226;2023-01-01T21:49:22;6.30;;;3.35;;
19863;SDS011;10094;48.820;9.226;2023-01-01T21:56:36;5.18;;;3.72;;
19863;SDS011;10094;48.820;9.226;2023-01-01T22:03:20;6.50;;;4.10;;
19863;SDS011;10094;48.820;9.226;2023-01-01T22:10:35;4.10;;;2.85;;
19863;SDS011;10094;48.820;9.226;2023-01-01T22:17:30;4.60;;;3.45;;
19863;SDS011;10094;48.820;9.226;2023-01-01T22:24:23;4.88;;;3.65;;
19863;SDS011;10094;48.820;9.226;2023-01-01T22:31:07;4.93;;;3.25;;
19863;SDS011;10094;48.820;9.226;2023-01-01T22:37:54;3.13;;;2.83;;
19863;SDS011;10094;48.820;9.226;2023-01-01T22:44:46;4.95;;;3.17;;
19863;SDS011;10094;48.820;9.226;2023-01-01T22:51:41;4.10;;;2.55;;
19863;SDS011;10094;48.820;9.226;2023-01-01T22:58:25;5.22;;;2.80;;
19863;SDS011;10094;48.820;9.226;2023-01-01T23:05:08;2.63;;;2.42;;
19863;SDS011;10094;48.820;9.226;2023-01-01T23:11:52;6.90;;;4.18;;
19863;SDS011;10094;48.820;9.226;2023-01-01T23:18:58;3.47;;;2.00;;
19863;SDS011;10094;48.820;9.226;2023-01-01T23:25:53;5.25;;;2.40;;
19863;SDS011;10094;48.820;9.226;2023-01-01T23:32:37;6.32;;;2.10;;
19863;SDS011;10094;48.820;9.226;2023-01-01T23:39:20;4.85;;;3.05;;
19863;SDS011;10094;48.820;9.226;2023-01-01T23:46:02;6.30;;;3.05;;
19863;SDS011;10094;48.820;9.226;2023-01-01T23:52:45;7.95;;;4.85;;
19863;SDS011;10094;48.820;9.226;2023-01-01T23:59:29;4.03;;;2.75;;
